Time;durP1;ratioP1;P1;durP2;ratioP2;P2;SDS_P1;SDS_P2;PMS_P1;PMS_P2;Temp;Humidity;BMP_temperature;BMP_pressure;BME280_temperature;BME280_humidity;BME280_pressure;Samples;Min_cycle;Max_cycle;Signal;HPM_P1;HPM_P2
2022/08/26 00:01:33;;;;;;;18.50;14.83;;;20.10;91.30;;;19.82;76.49;97688.66;5057121;28;20455;-82
2022/08/26 00:04:02;;;;;;;17.03;14.93;;;20.00;91.60;;;19.75;76.92;97688.16;5062065;28;20558;-80
2022/08/26 00:06:31;;;;;;;16.77;15.10;;;19.90;92.00;;;19.70;77.10;97688.19;5057008;28;20450;-81
2022/08/26 00:08:58;;;;;;;18.53;15.17;;;19.80;92.20;;;19.63;77.52;97690.41;5059101;28;20647;-81
2022/08/26 00:11:27;;;;;;;16.57;14.87;;;19.70;92.50;;;19.47;78.15;97676.00;5059565;28;20550;-80
2022/08/26 00:13:56;;;;;;;17.80;15.27;;;19.60;92.90;;;19.48;78.47;97700.34;5065103;28;20598;-81
2022/08/26 00:16:23;;;;;;;20.60;15.93;;;19.50;93.20;;;19.50;78.60;97703.66;5066260;28;20481;-81
2022/08/26 00:18:52;;;;;;;16.53;15.00;;;19.50;93.40;;;19.44;78.56;97682.84;5062273;28;20550;-82
2022/08/26 00:21:20;;;;;;;17.97;15.07;;;19.50;93.60;;;19.62;78.11;97699.75;5054986;28;20474;-81
2022/08/26 00:23:48;;;;;;;18.20;15.10;;;19.60;93.50;;;19.67;77.86;97680.56;5057152;28;20543;-80
2022/08/26 00:26:16;;;;;;;20.43;15.97;;;19.70;93.30;;;19.75;77.22;97696.38;5060685;28;20994;-82
2022/08/26 00:28:43;;;;;;;17.47;15.67;;;19.80;92.70;;;19.68;77.78;97704.09;5064387;28;20457;-83
2022/08/26 00:31:13;;;;;;;23.77;15.30;;;19.80;92.90;;;19.61;78.28;97709.06;5066299;28;20469;-84
2022/08/26 00:33:40;;;;;;;22.90;15.50;;;19.70;92.90;;;19.53;78.47;97707.72;5058951;28;20464;-84
2022/08/26 00:36:09;;;;;;;16.87;15.20;;;19.60;93.10;;;19.44;78.45;97698.47;5059445;28;20458;-78
2022/08/26 00:38:37;;;;;;;17.47;15.67;;;19.60;93.20;;;19.21;78.81;97673.38;5061350;28;20462;-83
2022/08/26 00:41:05;;;;;;;18.27;15.90;;;19.50;93.50;;;19.57;78.24;97702.50;5098662;28;20493;-80
2022/08/26 00:43:36;;;;;;;19.00;17.10;;;19.60;93.30;;;19.48;78.46;97696.81;5072961;28;20457;-82
2022/08/26 00:46:09;;;;;;;17.27;15.27;;;19.60;93.10;;;19.67;77.82;97705.22;5057100;28;20458;-82
2022/08/26 00:48:42;;;;;;;19.27;16.63;;;19.70;92.90;;;19.54;78.23;97710.22;5054741;28;20468;-83
2022/08/26 00:51:16;;;;;;;18.47;14.93;;;19.70;93.00;;;19.56;78.39;97700.88;5056124;28;20483;-82
2022/08/26 00:53:48;;;;;;;22.00;16.13;;;19.70;92.90;;;19.47;78.46;97693.25;5059410;28;20836;-83
2022/08/26 00:56:21;;;;;;;17.50;15.13;;;19.70;93.20;;;19.48;78.96;97705.84;5056192;28;20460;-84
2022/08/26 00:58:49;;;;;;;17.70;15.77;;;19.60;93.30;;;19.35;79.21;97706.47;5073482;28;20457;-82
2022/08/26 01:01:19;;;;;;;25.20;16.93;;;19.50;93.60;;;19.31;79.59;97700.72;5061818;28;21176;-80
2022/08/26 01:03:48;;;;;;;19.83;15.97;;;19.40;93.70;;;19.31;79.61;97699.91;5061050;28;20519;-80
2022/08/26 01:06:16;;;;;;;22.73;16.70;;;19.50;93.90;;;19.27;79.72;97688.69;5073306;28;20539;-76
2022/08/26 01:08:44;;;;;;;21.70;15.80;;;19.50;93.90;;;19.24;80.06;97700.19;5079542;28;20490;-77
2022/08/26 01:11:12;;;;;;;18.03;16.23;;;19.40;94.10;;;19.27;80.16;97696.91;5079808;28;20539;-83
2022/08/26 01:13:41;;;;;;;21.00;17.63;;;19.50;94.10;;;19.22;80.39;97703.22;5054957;28;20485;-82
2022/08/26 01:16:13;;;;;;;19.60;16.30;;;19.40;94.30;;;19.17;80.54;97686.00;5055490;28;20526;-83
2022/08/26 01:18:43;;;;;;;20.43;16.40;;;19.40;94.30;;;19.14;80.58;97683.81;5057990;28;20459;-82
2022/08/26 01:21:21;;;;;;;18.93;16.10;;;19.30;94.50;;;19.11;81.01;97690.66;5058094;28;20464;-83
2022/08/26 01:23:52;;;;;;;24.33;16.93;;;19.30;94.70;;;19.19;80.37;97692.84;5053753;28;20459;-78
2022/08/26 01:26:25;;;;;;;19.00;17.13;;;19.40;94.40;;;19.07;80.57;97689.59;5088371;28;20463;-82
2022/08/26 01:28:56;;;;;;;17.73;15.57;;;19.30;94.50;;;19.12;80.51;97708.72;5060065;28;20451;-81
2022/08/26 01:31:28;;;;;;;19.23;16.90;;;19.30;94.60;;;19.12;80.96;97703.25;5059582;28;20474;-82
2022/08/26 01:34:05;;;;;;;19.17;16.00;;;19.30;94.90;;;18.85;80.87;97663.34;5088259;28;20455;-81
2022/08/26 01:36:33;;;;;;;20.90;16.80;;;19.30;94.70;;;19.03;80.84;97700.28;5057347;28;20477;-82
2022/08/26 01:39:01;;;;;;;20.87;17.50;;;19.30;94.70;;;19.03;80.84;97707.66;5055810;28;20447;-79
2022/08/26 01:41:30;;;;;;;19.40;15.90;;;19.20;94.50;;;19.11;80.43;97710.66;5051737;28;20487;-82
2022/08/26 01:43:58;;;;;;;19.67;16.60;;;19.30;94.30;;;19.06;80.22;97696.16;5056400;28;20543;-83
2022/08/26 01:46:28;;;;;;;22.50;17.10;;;19.30;94.00;;;19.06;80.25;97701.66;5091980;28;20457;-82
2022/08/26 01:49:00;;;;;;;18.30;16.03;;;19.30;94.10;;;19.04;80.06;97699.19;5064377;28;20469;-81
2022/08/26 01:51:29;;;;;;;21.13;16.93;;;19.30;94.10;;;19.02;80.76;97703.28;5061522;28;20452;-80
2022/08/26 01:53:56;;;;;;;18.87;16.80;;;19.20;94.40;;;18.69;80.58;97636.03;5064034;28;20456;-82
2022/08/26 01:56:26;;;;;;;19.13;15.90;;;19.20;94.40;;;18.99;80.80;97682.78;5065425;28;21070;-79
2022/08/26 01:58:58;;;;;;;22.73;17.73;;;19.10;94.70;;;18.88;81.36;97695.66;5066895;28;20525;-83
2022/08/26 02:01:27;;;;;;;21.83;16.43;;;19.10;94.90;;;18.82;81.96;97694.00;5055471;28;20469;-80
2022/08/26 02:04:03;;;;;;;22.57;16.33;;;19.00;95.50;;;18.68;81.95;97683.63;5067485;28;20494;-81
2022/08/26 02:06:31;;;;;;;25.83;17.30;;;18.90;95.60;;;18.71;82.36;97693.22;5064499;28;20472;-79
2022/08/26 02:09:03;;;;;;;18.93;16.57;;;18.80;96.20;;;18.68;82.72;97688.31;5063878;28;20470;-81
2022/08/26 02:11:33;;;;;;;18.50;16.17;;;18.80;96.70;;;18.66;82.53;97680.34;5061142;28;20460;-83
2022/08/26 02:14:04;;;;;;;17.67;15.97;;;18.80;96.90;;;18.62;82.49;97676.53;5069625;28;20448;-84
2022/08/26 02:16:40;;;;;;;20.13;16.00;;;18.90;96.30;;;18.72;82.51;97688.53;5059877;28;20508;-82
2022/08/26 02:19:11;;;;;;;19.87;17.57;;;18.90;96.10;;;18.72;82.62;97688.53;5063283;28;20471;-80
2022/08/26 02:21:40;;;;;;;20.13;16.10;;;18.90;95.90;;;18.67;82.97;97687.47;5065378;28;20548;-81
2022/08/26 02:24:11;;;;;;;17.20;15.60;;;18.90;96.20;;;18.63;82.99;97686.38;5058871;28;20459;-81
2022/08/26 02:26:42;;;;;;;21.00;17.20;;;18.80;96.50;;;18.56;83.63;97696.78;5063797;28;20464;-82
2022/08/26 02:29:16;;;;;;;23.07;17.23;;;18.70;97.50;;;18.51;83.56;97683.13;5075611;28;20444;-81
2022/08/26 02:31:44;;;;;;;24.87;17.43;;;18.60;97.50;;;18.61;83.26;97702.25;5066771;28;20569;-83
2022/08/26 02:34:14;;;;;;;20.03;17.93;;;18.60;97.70;;;18.54;83.53;97698.97;5067694;28;21118;-80
2022/08/26 02:36:42;;;;;;;21.97;16.63;;;18.60;97.80;;;18.60;83.16;97697.91;5071401;28;20441;-79
2022/08/26 02:39:11;;;;;;;20.77;16.13;;;18.70;97.40;;;18.55;82.96;97692.41;5072783;28;20872;-83
2022/08/26 02:41:40;;;;;;;18.80;16.80;;;18.70;96.80;;;18.45;83.58;97689.72;5065753;28;20464;-81
2022/08/26 02:44:07;;;;;;;19.63;16.70;;;18.60;97.50;;;18.62;82.92;97701.16;5071057;28;20462;-81
2022/08/26 02:46:36;;;;;;;19.17;17.17;;;18.70;96.90;;;18.52;83.20;97706.63;5068987;28;20452;-82
2022/08/26 02:49:04;;;;;;;19.07;17.10;;;18.60;97.00;;;18.57;82.79;97705.81;5071798;28;21136;-84
2022/08/26 02:51:31;;;;;;;22.47;16.70;;;18.60;96.90;;;18.55;82.82;97692.41;5068165;28;20471;-82
2022/08/26 02:53:59;;;;;;;19.23;16.20;;;18.60;97.00;;;18.57;82.92;97700.34;5079435;28;20485;-80
2022/08/26 02:56:26;;;;;;;18.00;16.13;;;18.60;96.90;;;18.59;82.71;97701.72;5068969;28;20529;-83
2022/08/26 02:58:55;;;;;;;18.30;16.10;;;18.70;96.90;;;18.52;82.87;97690.22;5070975;28;20920;-78
2022/08/26 03:01:27;;;;;;;25.50;16.17;;;18.70;96.80;;;18.42;83.56;97691.06;5072054;28;20947;-81
2022/08/26 03:03:54;;;;;;;27.17;17.43;;;18.60;97.00;;;18.50;83.34;97692.44;5086973;28;20449;-84
2022/08/26 03:06:23;;;;;;;20.03;16.40;;;18.60;97.10;;;18.40;83.59;97694.06;5066893;28;20457;-81
2022/08/26 03:08:51;;;;;;;20.70;17.20;;;18.60;97.30;;;18.37;83.96;97686.41;5062603;28;20817;-82
2022/08/26 03:11:20;;;;;;;20.23;18.23;;;18.50;97.30;;;18.29;84.18;97686.16;5061134;28;20555;-77
2022/08/26 03:13:47;;;;;;;21.50;18.07;;;18.50;97.70;;;18.21;84.59;97676.59;5068572;28;20786;-84
2022/08/26 03:16:16;;;;;;;22.90;18.63;;;18.40;98.30;;;18.11;85.18;97680.94;5063138;28;20490;-80
2022/08/26 03:18:44;;;;;;;22.77;20.43;;;18.40;98.30;;;18.07;85.70;97682.59;5067078;28;20502;-82
2022/08/26 03:21:15;;;;;;;21.60;18.70;;;18.30;99.00;;;18.01;85.53;97664.53;5077575;28;20484;-84
2022/08/26 03:23:44;;;;;;;24.77;17.23;;;18.30;98.80;;;18.10;85.59;97681.22;5074424;28;20448;-78
2022/08/26 03:26:15;;;;;;;21.20;17.50;;;18.30;99.30;;;18.07;85.72;97674.41;5078401;28;20472;-81
2022/08/26 03:31:26;;;;;;;19.90;17.20;;;18.20;99.70;;;18.09;85.84;97671.41;5082792;28;20459;-80
2022/08/26 03:33:53;;;;;;;21.10;18.80;;;18.30;99.40;;;18.03;86.09;97677.94;5062930;28;20461;-84
2022/08/26 03:36:21;;;;;;;24.07;17.20;;;18.30;99.30;;;17.98;86.13;97665.09;5072113;28;20522;-84
2022/08/26 03:38:49;;;;;;;19.30;16.73;;;18.30;99.20;;;18.05;85.72;97682.06;5072438;28;20458;-83
2022/08/26 03:41:17;;;;;;;20.40;18.20;;;18.30;99.00;;;18.02;85.93;97677.13;5070579;28;20451;-84
2022/08/26 03:43:47;;;;;;;20.83;17.77;;;18.30;99.20;;;17.99;86.15;97672.19;5070278;28;20531;-84
2022/08/26 03:46:15;;;;;;;23.00;19.17;;;18.20;99.50;;;17.93;86.34;97667.78;5071117;28;20447;-78
2022/08/26 03:48:44;;;;;;;20.17;17.87;;;18.20;99.70;;;17.93;86.52;97671.34;5069077;28;20460;-80
2022/08/26 03:51:15;;;;;;;24.20;18.80;;;18.10;99.90;;;17.91;86.48;97664.50;5072702;28;20467;-84
2022/08/26 03:53:43;;;;;;;23.30;19.20;;;18.10;99.90;;;17.88;86.82;97671.34;5071115;28;20580;-78
2022/08/26 03:56:11;;;;;;;25.17;19.20;;;18.10;99.90;;;17.80;86.91;97674.63;5071262;28;20471;-83
2022/08/26 03:58:38;;;;;;;22.47;20.00;;;18.10;99.90;;;17.81;87.51;97671.59;5072777;28;20513;-83
2022/08/26 04:01:06;;;;;;;19.73;17.80;;;18.10;99.90;;;17.84;86.97;97667.50;5073887;28;20513;-81
2022/08/26 04:06:20;;;;;;;21.20;18.97;;;18.00;99.90;;;17.80;87.41;97669.97;5069666;28;20439;-81
2022/08/26 04:08:48;;;;;;;22.10;18.20;;;18.00;99.90;;;17.72;87.80;97667.78;5085844;28;20472;-81
2022/08/26 04:11:18;;;;;;;20.43;18.53;;;17.90;99.90;;;17.80;87.42;97669.97;5059551;28;20467;-80
2022/08/26 04:13:46;;;;;;;28.20;18.40;;;18.00;99.90;;;17.83;87.20;97669.44;5066746;28;20453;-84
2022/08/26 04:16:13;;;;;;;24.53;19.53;;;18.00;99.90;;;17.83;87.37;97668.59;5073854;28;20468;-80
2022/08/26 04:18:40;;;;;;;24.67;18.63;;;18.00;99.90;;;17.88;87.32;97665.88;5069821;28;20468;-81
2022/08/26 04:21:08;;;;;;;22.50;18.17;;;18.10;99.90;;;17.99;86.65;97672.19;5073097;28;20579;-80
2022/08/26 04:23:39;;;;;;;20.87;18.50;;;18.10;99.90;;;17.94;86.73;97667.53;5065879;28;20475;-82
2022/08/26 04:26:06;;;;;;;24.90;20.10;;;18.10;99.90;;;17.86;87.35;97667.25;5068053;28;20474;-79
2022/08/26 04:28:34;;;;;;;22.23;18.17;;;18.10;99.90;;;17.86;87.29;97656.31;5066586;28;20811;-80
2022/08/26 04:31:02;;;;;;;21.60;19.40;;;18.10;99.90;;;17.67;87.33;97637.72;5065958;28;20558;-80
2022/08/26 04:33:29;;;;;;;25.73;19.37;;;18.10;99.90;;;17.84;87.61;97665.63;5079411;28;20969;-80
2022/08/26 04:36:01;;;;;;;23.13;19.43;;;18.10;99.90;;;17.81;87.87;97666.13;5063109;28;20529;-82
2022/08/26 04:38:29;;;;;;;23.67;19.77;;;18.10;99.90;;;17.79;88.04;97668.31;5065853;28;20475;-75
2022/08/26 04:40:58;;;;;;;21.70;19.17;;;18.10;99.90;;;17.92;87.37;97667.00;5061548;28;20551;-73
2022/08/26 04:43:29;;;;;;;22.10;19.67;;;18.20;99.90;;;18.10;86.43;97665.63;5061780;28;21032;-76
2022/08/26 04:46:00;;;;;;;24.37;19.80;;;18.30;99.80;;;18.23;85.57;97671.66;5063025;28;20560;-75
2022/08/26 04:48:29;;;;;;;18.87;16.87;;;18.40;98.80;;;18.60;84.03;97670.53;5068607;28;20459;-74
2022/08/26 04:50:58;;;;;;;27.13;18.80;;;18.60;97.80;;;18.77;82.54;97675.69;5055838;28;20553;-73
2022/08/26 04:53:26;;;;;;;22.37;18.10;;;18.90;96.30;;;18.96;82.10;97672.38;5056210;28;20990;-75
2022/08/26 04:55:55;;;;;;;22.37;16.20;;;19.10;95.70;;;19.38;79.45;97681.25;5058086;28;20477;-72
2022/08/26 04:58:25;;;;;;;20.37;17.20;;;19.40;94.10;;;19.68;77.52;97676.72;5055384;28;20459;-75
2022/08/26 05:00:55;;;;;;;23.30;16.10;;;19.80;92.60;;;19.75;76.69;97666.22;5053675;28;20468;-76
2022/08/26 05:03:26;;;;;;;19.17;16.10;;;20.00;91.70;;;20.26;74.80;97691.69;5049583;28;20459;-75
2022/08/26 05:05:53;;;;;;;21.83;15.47;;;20.40;91.00;;;20.25;74.25;97668.09;5056332;28;20487;-72
2022/08/26 05:08:23;;;;;;;24.60;16.67;;;20.50;90.20;;;20.50;73.42;97688.16;5059348;28;21166;-76
2022/08/26 05:10:54;;;;;;;23.00;15.87;;;20.70;90.00;;;20.15;73.97;97674.47;5049613;28;20451;-72
2022/08/26 05:13:27;;;;;;;22.07;16.43;;;20.60;89.50;;;20.52;72.76;97684.03;5057980;28;20498;-74
2022/08/26 05:15:55;;;;;;;20.07;15.80;;;20.70;89.40;;;20.84;71.69;97687.28;5050688;28;20597;-71
2022/08/26 05:18:26;;;;;;;19.77;15.20;;;21.00;88.80;;;20.58;70.11;97599.75;5052666;28;20865;-76
2022/08/26 05:20:54;;;;;;;18.80;16.70;;;21.40;87.90;;;20.97;70.63;97695.97;5056205;28;20469;-76
2022/08/26 05:23:22;;;;;;;17.93;16.10;;;21.40;87.50;;;21.34;69.43;97694.44;5057297;28;21067;-76
2022/08/26 05:25:53;;;;;;;18.37;16.57;;;21.50;87.20;;;21.20;69.46;97686.06;5053881;28;20447;-78
2022/08/26 05:28:23;;;;;;;20.43;16.33;;;21.60;86.60;;;21.25;69.44;97688.78;5060401;28;20464;-78
2022/08/26 05:30:51;;;;;;;23.03;16.50;;;21.70;86.40;;;21.15;69.68;97689.69;5066514;28;20455;-74
2022/08/26 05:33:20;;;;;;;20.30;17.50;;;21.70;86.30;;;20.81;70.81;97679.66;5064375;28;20463;-79
2022/08/26 05:35:48;;;;;;;23.83;16.43;;;21.50;86.40;;;20.90;70.53;97699.03;5058801;28;20484;-79
2022/08/26 05:38:18;;;;;;;20.67;17.10;;;21.50;86.60;;;21.31;69.14;97692.28;5056486;28;20553;-78
2022/08/26 05:40:50;;;;;;;21.30;17.03;;;21.80;86.10;;;21.50;68.85;97695.88;5051561;28;20823;-79
2022/08/26 05:43:19;;;;;;;20.47;16.40;;;22.00;85.90;;;21.66;67.70;97695.69;5056258;28;20454;-80
2022/08/26 05:45:50;;;;;;;21.57;16.47;;;22.30;85.00;;;21.26;69.33;97706.06;5053848;28;20463;-81
2022/08/26 05:48:20;;;;;;;21.67;17.40;;;22.10;85.20;;;20.85;70.74;97710.94;5055179;28;20458;-80
2022/08/26 05:50:49;;;;;;;20.00;17.47;;;21.50;86.10;;;20.64;71.88;97702.84;5052801;28;20460;-76
2022/08/26 05:53:20;;;;;;;19.60;17.63;;;21.20;86.90;;;20.38;72.90;97700.31;5055854;28;20475;-80
2022/08/26 05:55:50;;;;;;;20.60;16.53;;;20.90;87.50;;;20.18;73.92;97700.50;5048880;28;20483;-75
2022/08/26 05:58:21;;;;;;;20.73;17.23;;;20.60;88.10;;;20.19;74.07;97705.72;5059932;28;20493;-77
2022/08/26 06:01:00;;;;;;;23.00;17.37;;;20.50;88.80;;;20.29;73.99;97701.25;5057436;28;20482;-76
2022/08/26 06:03:30;;;;;;;21.30;17.77;;;20.50;89.30;;;20.32;74.03;97701.50;5058082;28;20526;-79
2022/08/26 06:06:01;;;;;;;26.20;17.93;;;20.60;89.40;;;20.45;72.92;97689.03;5056036;28;21051;-75
2022/08/26 06:08:29;;;;;;;19.87;17.80;;;20.70;89.00;;;20.28;73.63;97699.59;5065117;28;20458;-73
2022/08/26 06:11:01;;;;;;;24.67;18.57;;;20.70;89.10;;;20.39;73.43;97693.72;5066077;28;20471;-73
2022/08/26 06:13:30;;;;;;;21.47;18.70;;;20.70;89.30;;;20.44;73.30;97697.56;5067339;28;20455;-71
2022/08/26 06:15:59;;;;;;;24.27;18.03;;;20.70;89.20;;;20.83;72.01;97704.06;5052603;28;20480;-74
2022/08/26 06:18:31;;;;;;;21.03;17.00;;;20.80;89.10;;;20.86;72.03;97704.31;5056551;28;20483;-75
2022/08/26 06:21:01;;;;;;;20.70;17.03;;;21.00;88.70;;;20.94;71.23;97706.41;5050799;28;20460;-74
2022/08/26 06:26:16;;;;;;;23.10;16.87;;;21.10;88.50;;;20.99;71.16;97704.72;5057814;28;20487;-75
2022/08/26 06:28:44;;;;;;;23.83;17.50;;;21.20;88.10;;;20.94;71.47;97698.19;5063542;28;20451;-72
2022/08/26 06:31:14;;;;;;;21.93;17.20;;;21.20;88.20;;;20.98;71.57;97705.81;5068476;28;20471;-76
2022/08/26 06:33:41;;;;;;;20.10;17.43;;;21.20;88.20;;;20.92;71.62;97700.41;5070003;28;20513;-76
2022/08/26 06:36:09;;;;;;;25.40;17.63;;;21.20;88.10;;;20.87;71.62;97700.47;5056185;28;20484;-75
2022/08/26 06:38:36;;;;;;;22.80;18.10;;;21.20;88.00;;;20.89;71.94;97703.72;5058561;28;20467;-76
2022/08/26 06:41:03;;;;;;;23.07;16.37;;;21.20;88.30;;;20.96;71.54;97706.13;5060049;28;21333;-76
2022/08/26 06:43:31;;;;;;;21.73;17.07;;;21.20;88.10;;;21.03;71.46;97709.34;5057504;28;20889;-76
2022/08/26 06:46:03;;;;;;;23.53;16.97;;;21.20;88.20;;;20.89;71.91;97701.00;5063302;28;20461;-77
2022/08/26 06:48:33;;;;;;;23.90;16.80;;;21.20;88.30;;;20.95;72.63;97697.06;5064964;28;20469;-75
2022/08/26 06:51:06;;;;;;;19.83;17.10;;;21.20;88.70;;;21.21;71.67;97710.50;5058108;28;20470;-76
2022/08/26 06:53:35;;;;;;;24.53;17.53;;;21.30;88.60;;;21.30;71.22;97707.09;5061618;28;20527;-76
2022/08/26 06:56:06;;;;;;;21.00;16.60;;;21.40;88.60;;;21.64;70.18;97706.13;5067064;28;20563;-76
2022/08/26 06:58:36;;;;;;;19.17;16.83;;;21.60;88.40;;;21.55;70.18;97702.41;5069098;28;20456;-76
2022/08/26 07:01:04;;;;;;;24.20;16.60;;;21.80;87.90;;;21.58;70.30;97707.31;5062008;28;20482;-77
2022/08/26 07:03:33;;;;;;;26.40;16.03;;;21.70;87.80;;;21.75;69.58;97713.13;5079568;28;20459;-76
2022/08/26 07:06:04;;;;;;;21.50;16.57;;;21.90;87.60;;;21.71;69.36;97708.56;5066603;28;20576;-76
2022/08/26 07:08:32;;;;;;;20.70;16.47;;;21.90;87.20;;;21.73;69.24;97703.56;5069984;28;20453;-76
2022/08/26 07:11:05;;;;;;;22.43;16.60;;;21.90;87.30;;;21.90;68.82;97694.78;5063409;28;20521;-76
2022/08/26 07:13:35;;;;;;;18.03;16.07;;;22.00;87.20;;;21.88;68.83;97689.59;5065544;28;20503;-75
2022/08/26 07:16:04;;;;;;;21.17;16.40;;;22.00;87.30;;;21.97;68.87;97703.50;5062218;28;20449;-75
2022/08/26 07:18:33;;;;;;;19.57;17.27;;;22.10;87.30;;;22.12;68.36;97709.88;5058741;28;20462;-75
2022/08/26 07:21:01;;;;;;;23.87;15.63;;;22.20;87.10;;;22.20;67.96;97706.44;5052992;28;20552;-79
2022/08/26 07:23:31;;;;;;;21.80;16.30;;;22.30;86.80;;;21.95;69.14;97697.47;5058441;28;20520;-77
2022/08/26 07:26:01;;;;;;;20.47;15.77;;;22.30;87.00;;;22.26;68.07;97701.66;5059210;28;20467;-77
2022/08/26 07:28:28;;;;;;;17.83;14.13;;;22.40;87.00;;;22.27;67.42;97700.53;5063107;28;20985;-73
2022/08/26 07:30:56;;;;;;;18.87;14.90;;;22.40;86.50;;;22.45;67.38;97707.97;5060366;28;20506;-75
2022/08/26 07:33:23;;;;;;;28.57;16.90;;;22.50;86.60;;;22.04;67.39;97676.41;5057843;28;20471;-74
2022/08/26 07:35:52;;;;;;;25.90;17.10;;;22.50;86.10;;;22.35;67.38;97711.69;5059611;28;20466;-73
2022/08/26 07:38:19;;;;;;;18.70;15.10;;;22.60;86.40;;;22.29;67.32;97710.16;5073195;28;20464;-74
2022/08/26 07:40:46;;;;;;;20.43;15.90;;;22.60;86.00;;;22.28;67.69;97708.50;5065331;28;20495;-75
2022/08/26 07:43:14;;;;;;;24.73;15.83;;;22.50;86.20;;;22.03;68.39;97715.25;5059880;28;20474;-75
2022/08/26 07:45:42;;;;;;;18.37;16.50;;;22.40;86.40;;;22.29;67.59;97714.81;5060514;28;20460;-75
2022/08/26 07:48:09;;;;;;;27.93;16.83;;;22.30;86.40;;;22.61;66.69;97722.28;5055753;28;20535;-75
2022/08/26 07:50:38;;;;;;;21.63;14.90;;;22.50;86.30;;;22.38;66.82;97691.00;5051235;28;20462;-76
2022/08/26 07:53:07;;;;;;;23.53;15.83;;;22.70;86.00;;;22.67;66.55;97708.44;5061774;28;20472;-76
2022/08/26 07:55:36;;;;;;;20.87;15.67;;;22.80;86.00;;;23.22;65.23;97713.22;5055246;28;20499;-77
2022/08/26 07:58:04;;;;;;;19.47;14.93;;;23.20;85.80;;;23.27;64.98;97704.84;5059493;28;20550;-77
2022/08/26 08:00:32;;;;;;;18.43;14.07;;;23.30;85.40;;;23.25;64.22;97707.06;5057532;28;20489;-78
2022/08/26 08:03:01;;;;;;;21.97;14.50;;;23.40;84.90;;;23.56;63.74;97705.63;5057256;28;20461;-76
2022/08/26 08:05:31;;;;;;;19.70;13.40;;;23.60;84.80;;;23.74;62.93;97706.63;5089821;28;20544;-78
2022/08/26 08:07:59;;;;;;;18.90;14.23;;;23.80;84.40;;;24.03;62.02;97703.50;5060870;28;20953;-77
2022/08/26 08:10:29;;;;;;;23.50;13.17;;;24.00;84.10;;;24.22;61.49;97699.75;5051106;28;21060;-77
2022/08/26 08:12:57;;;;;;;22.90;15.63;;;24.30;83.80;;;24.49;61.20;97709.00;5056358;28;20489;-76
2022/08/26 08:15:29;;;;;;;21.10;15.03;;;24.40;83.50;;;24.56;60.62;97703.88;5061864;28;20506;-75
2022/08/26 08:17:57;;;;;;;15.83;13.70;;;24.60;83.20;;;24.85;59.31;97705.38;5060384;28;20498;-76
2022/08/26 08:20:26;;;;;;;20.90;13.50;;;24.80;82.50;;;24.80;59.70;97700.00;5055203;28;20457;-76
2022/08/26 08:22:54;;;;;;;21.77;13.80;;;24.80;82.60;;;24.80;59.67;97702.75;5055572;28;20468;-76
2022/08/26 08:25:22;;;;;;;18.17;13.50;;;24.90;82.20;;;24.80;59.99;97697.22;5062230;28;21003;-74
2022/08/26 08:27:51;;;;;;;21.03;13.73;;;24.90;82.10;;;24.93;59.32;97689.13;5057996;28;20472;-76
2022/08/26 08:30:21;;;;;;;16.73;13.20;;;25.00;82.10;;;25.02;58.60;97670.66;5060444;28;20500;-76
2022/08/26 08:32:50;;;;;;;18.90;13.07;;;25.20;81.80;;;25.25;58.29;97700.97;5049124;28;20469;-75
2022/08/26 08:35:21;;;;;;;17.80;13.33;;;25.30;81.20;;;24.92;59.39;97688.34;5057738;28;20481;-77
2022/08/26 08:37:53;;;;;;;18.53;13.10;;;25.20;81.20;;;24.97;59.65;97690.16;5048809;28;20484;-75
2022/08/26 08:40:23;;;;;;;18.20;13.50;;;25.20;81.40;;;25.13;59.00;97688.59;5053849;28;20459;-77
2022/08/26 08:43:03;;;;;;;17.10;13.07;;;25.20;81.50;;;25.37;58.47;97689.31;5055689;28;20458;-76
2022/08/26 08:45:36;;;;;;;14.07;11.73;;;25.40;81.10;;;24.93;59.41;97680.84;5071152;28;20462;-76
2022/08/26 08:48:12;;;;;;;17.30;12.37;;;25.40;80.90;;;25.21;58.63;97680.63;5050612;28;20464;-78
2022/08/26 08:50:45;;;;;;;17.20;12.73;;;25.30;81.20;;;25.71;57.49;97680.28;5054453;28;20584;-76
2022/08/26 08:53:19;;;;;;;18.73;13.90;;;25.60;80.70;;;25.83;57.05;97676.06;5054282;28;20456;-78
2022/08/26 08:56:07;;;;;;;15.13;12.23;;;25.80;80.30;;;25.68;57.73;97683.69;5055249;28;20476;-75
2022/08/26 08:58:53;;;;;;;19.33;13.20;;;25.90;80.20;;;25.55;57.93;97687.41;5059869;28;20480;-76
2022/08/26 09:01:38;;;;;;;20.40;12.00;;;25.80;80.20;;;25.80;57.11;97677.53;5054623;28;20466;-77
2022/08/26 09:04:27;;;;;;;18.27;12.53;;;25.70;80.10;;;26.08;55.95;97671.66;5056895;28;20590;-77
2022/08/26 09:06:58;;;;;;;17.50;13.20;;;26.00;79.90;;;26.25;56.17;97659.78;5060070;28;20907;-76
2022/08/26 09:09:34;;;;;;;23.20;13.77;;;26.20;79.40;;;26.12;56.11;97671.81;5059640;28;20455;-77
2022/08/26 09:12:07;;;;;;;18.13;12.97;;;26.20;79.20;;;25.90;56.97;97662.56;5053656;28;20497;-77
2022/08/26 09:14:36;;;;;;;19.43;13.03;;;26.20;79.10;;;25.48;57.97;97668.56;5053802;28;20562;-76
2022/08/26 09:17:16;;;;;;;16.90;13.73;;;25.90;79.50;;;25.57;58.20;97660.25;5063876;28;20569;-77
2022/08/26 09:19:51;;;;;;;16.40;12.40;;;25.70;79.60;;;26.12;56.66;97663.50;5067705;28;20513;-77
2022/08/26 09:22:29;;;;;;;16.80;12.17;;;26.00;79.50;;;26.41;56.39;97660.09;5068044;28;20483;-77
2022/08/26 09:24:58;;;;;;;18.20;12.53;;;26.30;79.30;;;26.55;55.13;97667.41;5065441;28;20467;-76
2022/08/26 09:27:43;;;;;;;17.70;13.60;;;26.50;78.50;;;26.29;55.94;97652.44;5055432;28;20467;-77
2022/08/26 09:30:16;;;;;;;14.80;12.63;;;26.50;78.30;;;26.65;55.21;97644.06;5059288;28;20498;-77
2022/08/26 09:32:57;;;;;;;15.33;13.40;;;26.50;78.30;;;26.77;54.24;97646.94;5056192;28;20459;-76
2022/08/26 09:35:30;;;;;;;17.10;13.03;;;26.80;77.80;;;26.79;54.08;97647.44;5057890;28;20456;-77
2022/08/26 09:37:59;;;;;;;16.23;13.00;;;26.80;77.40;;;27.00;53.85;97643.94;5061130;28;20482;-78
2022/08/26 09:40:32;;;;;;;15.80;12.53;;;26.90;77.30;;;26.98;53.61;97635.16;5054943;28;20991;-78
2022/08/26 09:43:14;;;;;;;13.73;12.10;;;26.90;76.90;;;27.47;52.39;97631.09;5057684;28;20468;-78
2022/08/26 09:45:46;;;;;;;16.90;11.90;;;27.30;76.40;;;27.32;52.44;97638.06;5062559;28;20468;-77
2022/08/26 09:48:29;;;;;;;15.70;12.47;;;27.40;75.90;;;27.33;52.34;97629.41;5056819;28;22041;-77
2022/08/26 09:51:02;;;;;;;13.57;10.60;;;27.30;75.70;;;27.62;52.01;97622.22;5059588;28;20541;-76
2022/08/26 09:53:35;;;;;;;13.13;10.07;;;27.50;75.50;;;27.81;50.09;97621.75;5077540;28;20982;-78
2022/08/26 09:56:17;;;;;;;12.93;10.97;;;27.70;74.00;;;27.76;50.17;97607.25;5057167;28;20827;-76
2022/08/26 09:58:47;;;;;;;17.93;9.77;;;27.80;73.30;;;27.84;48.64;97606.38;5059253;28;20988;-76
2022/08/26 10:01:29;;;;;;;14.50;9.50;;;27.80;72.10;;;27.57;49.08;97594.69;5055731;28;20456;-78
2022/08/26 10:04:07;;;;;;;10.83;9.63;;;27.70;71.80;;;27.87;48.62;97586.28;5091747;28;20495;-78
2022/08/26 10:06:39;;;;;;;13.03;11.43;;;27.70;71.80;;;28.31;47.86;97571.97;5061532;28;20463;-78
2022/08/26 10:09:11;;;;;;;12.73;10.37;;;28.10;71.50;;;28.37;47.81;97580.88;5057855;28;20492;-75
2022/08/26 10:11:46;;;;;;;13.97;9.80;;;28.40;71.10;;;28.45;46.62;97577.22;5059883;28;20488;-78
2022/08/26 10:14:19;;;;;;;9.47;8.53;;;28.40;69.80;;;28.34;46.67;97570.47;5058624;28;20466;-75
2022/08/26 10:16:53;;;;;;;18.20;10.20;;;28.30;69.10;;;28.43;46.94;97573.94;5064576;28;20457;-76
2022/08/26 10:19:26;;;;;;;16.33;9.87;;;28.40;69.60;;;28.50;46.66;97560.31;5071813;28;20557;-74
2022/08/26 10:22:02;;;;;;;14.57;10.00;;;28.40;69.90;;;28.58;46.64;97553.00;5063244;28;21100;-75
2022/08/26 10:24:38;;;;;;;14.80;9.60;;;28.40;69.00;;;29.18;45.42;97546.97;5053722;28;20542;-75
2022/08/26 10:27:19;;;;;;;13.00;9.70;;;28.90;68.60;;;29.27;45.20;97549.63;5050203;28;20547;-76